createdAt,value
2018-09-03T16:01:47.437Z,6.73
2018-09-03T16:04:15.606Z,7.43
2018-09-03T16:06:43.785Z,7.60
2018-09-03T16:09:12.054Z,8.23
2018-09-03T16:11:39.934Z,8.70
2018-09-03T16:14:08.632Z,7.27
2018-09-03T16:16:36.745Z,7.80
2018-09-03T16:19:05.089Z,7.37
2018-09-03T16:21:33.289Z,7.80
2018-09-03T16:24:01.517Z,8.50
2018-09-03T16:26:29.738Z,9.13
2018-09-03T16:28:57.952Z,8.90
2018-09-03T16:31:25.957Z,8.53
2018-09-03T16:33:54.142Z,10.90
2018-09-03T16:36:22.352Z,9.10
2018-09-03T16:38:50.579Z,10.13
2018-09-03T16:41:18.474Z,11.37
2018-09-03T16:43:46.405Z,9.63
2018-09-03T16:46:14.628Z,9.40
2018-09-03T16:48:42.552Z,10.10
2018-09-03T16:51:10.489Z,8.03
2018-09-03T16:53:38.707Z,8.90
2018-09-03T16:56:06.885Z,8.70
2018-09-03T16:58:34.859Z,8.60
2018-09-03T17:01:03.071Z,8.90
2018-09-03T17:03:31.248Z,7.67
2018-09-03T17:05:59.429Z,7.40
2018-09-03T17:08:27.605Z,8.50
2018-09-03T17:10:55.776Z,8.50
2018-09-03T17:13:23.975Z,8.00
2018-09-03T17:15:52.128Z,8.80
2018-09-03T17:18:20.321Z,9.80
2018-09-03T17:20:48.497Z,9.50
2018-09-03T17:23:16.697Z,10.53
2018-09-03T17:25:44.856Z,9.40
2018-09-03T17:28:13.117Z,9.33
2018-09-03T17:30:41.189Z,9.00
2018-09-03T17:33:09.471Z,9.27
2018-09-03T17:35:37.643Z,9.07
2018-09-03T17:38:05.844Z,10.47
2018-09-03T17:40:33.793Z,9.67
2018-09-03T17:43:01.997Z,8.60
2018-09-03T17:45:30.241Z,9.00
2018-09-03T17:47:58.437Z,9.97
2018-09-03T17:50:26.377Z,9.93
2018-09-03T17:52:54.552Z,9.90
2018-09-03T17:55:22.724Z,10.00
2018-09-03T17:57:50.897Z,9.60
2018-09-03T18:00:19.090Z,9.40
2018-09-03T18:02:47.305Z,8.80
2018-09-03T18:05:15.605Z,9.00
2018-09-03T18:07:43.857Z,8.73
2018-09-03T18:10:11.796Z,12.20
2018-09-03T18:12:40.012Z,9.90
2018-09-03T18:15:08.253Z,9.63
2018-09-03T18:17:36.522Z,10.27
2018-09-03T18:20:04.831Z,9.90
2018-09-03T18:22:33.008Z,9.20
2018-09-03T18:25:01.201Z,10.40
2018-09-03T18:27:29.137Z,9.50
2018-09-03T18:29:57.373Z,9.43
2018-09-03T18:32:25.607Z,8.30
2018-09-03T18:34:53.807Z,9.40
2018-09-03T18:37:22.045Z,10.70
2018-09-03T18:39:50.278Z,10.40
2018-09-03T18:42:19.354Z,9.83
2018-09-03T18:44:47.681Z,10.80
2018-09-03T18:47:15.857Z,11.43
2018-09-03T18:49:44.033Z,11.70
2018-09-03T18:52:12.245Z,12.00
2018-09-03T18:54:40.496Z,9.23
2018-09-03T18:57:08.672Z,13.10
2018-09-03T18:59:36.904Z,12.73
2018-09-03T19:02:05.096Z,12.50
2018-09-03T19:04:33.269Z,13.50
2018-09-03T19:07:01.441Z,13.40
2018-09-03T19:09:29.364Z,13.37
2018-09-03T19:11:57.556Z,15.53
2018-09-03T19:14:25.767Z,14.07
2018-09-03T19:16:54.408Z,14.40
2018-09-03T19:19:22.347Z,14.63
2018-09-03T19:21:50.577Z,16.10
2018-09-03T19:24:18.778Z,13.83
2018-09-03T19:26:46.954Z,15.80
2018-09-03T19:29:14.901Z,14.30
2018-09-03T19:31:42.824Z,15.17
2018-09-03T19:34:11.019Z,15.47
2018-09-03T19:36:39.301Z,14.60
2018-09-03T19:39:07.404Z,15.83
2018-09-03T19:41:35.569Z,17.70
2018-09-03T19:44:04.256Z,18.67
2018-09-03T19:46:32.416Z,19.33
2018-09-03T19:49:00.624Z,19.80
2018-09-03T19:51:28.775Z,18.33
2018-09-03T19:53:56.740Z,18.53
2018-09-03T19:56:24.920Z,21.13
2018-09-03T19:58:52.876Z,19.77
2018-09-03T20:01:21.093Z,20.47
2018-09-03T20:03:49.477Z,19.00
2018-09-03T20:06:19.309Z,20.30
2018-09-03T20:08:49.556Z,21.03
2018-09-03T20:11:17.768Z,23.10
2018-09-03T20:13:45.957Z,21.87
2018-09-03T20:16:14.132Z,23.80
2018-09-03T20:18:42.363Z,22.73
2018-09-03T20:21:10.737Z,21.30
2018-09-03T20:23:39.040Z,24.57
2018-09-03T20:26:07.215Z,26.23
2018-09-03T20:28:35.428Z,24.03
2018-09-03T20:31:03.671Z,24.03
2018-09-03T20:33:31.792Z,24.43
2018-09-03T20:36:00.004Z,25.27
2018-09-03T20:38:27.953Z,23.80
2018-09-03T20:40:56.106Z,24.73
2018-09-03T20:43:24.312Z,26.20
2018-09-03T20:45:52.488Z,23.80
2018-09-03T20:48:20.449Z,24.27
2018-09-03T20:50:48.641Z,23.33
2018-09-03T20:53:16.836Z,24.33
2018-09-03T20:55:44.996Z,26.20
2018-09-03T20:58:13.174Z,26.80
2018-09-03T21:00:41.353Z,25.60
2018-09-03T21:03:09.297Z,26.90
2018-09-03T21:05:37.472Z,25.57
2018-09-03T21:08:05.673Z,25.50
2018-09-03T21:10:33.860Z,24.97
2018-09-03T21:13:01.821Z,25.90
2018-09-03T21:15:29.770Z,26.37
2018-09-03T21:17:57.937Z,27.70
2018-09-03T21:20:26.109Z,28.07
2018-09-03T21:22:54.270Z,26.60
2018-09-03T21:25:22.219Z,26.87
2018-09-03T21:27:50.433Z,24.83
2018-09-03T21:30:18.630Z,26.43
2018-09-03T21:32:46.813Z,25.90
2018-09-03T21:35:15.040Z,26.30
2018-09-03T21:37:43.049Z,24.10
2018-09-03T21:40:11.241Z,24.53
2018-09-03T21:42:39.440Z,22.47
2018-09-03T21:45:08.542Z,22.03
2018-09-03T21:47:36.740Z,22.47
2018-09-03T21:50:05.049Z,20.13
2018-09-03T21:52:33.232Z,23.20
2018-09-03T21:55:01.445Z,20.20
2018-09-03T21:57:29.747Z,20.57
2018-09-03T21:59:57.688Z,20.50
